createdAt,value
2019-05-19T00:01:26.181Z,50.05
2019-05-19T00:03:53.260Z,50.24
2019-05-19T00:06:20.347Z,50.39
2019-05-19T00:08:47.395Z,50.33
2019-05-19T00:11:14.491Z,50.23
2019-05-19T00:13:41.570Z,50.13
2019-05-19T00:16:09.911Z,50.15
2019-05-19T00:18:41.668Z,50.06
2019-05-19T00:21:10.549Z,50.16
2019-05-19T00:23:37.680Z,50.14
2019-05-19T00:26:04.959Z,50.22
2019-05-19T00:28:32.117Z,50.34
2019-05-19T00:31:02.211Z,50.17
2019-05-19T00:33:31.762Z,50.16
2019-05-19T00:35:58.886Z,50.28
2019-05-19T00:38:26.008Z,50.32
2019-05-19T00:40:55.560Z,50.31
2019-05-19T00:43:26.737Z,50.44
2019-05-19T00:45:53.964Z,50.30
2019-05-19T00:48:21.037Z,50.31
2019-05-19T00:50:50.814Z,50.38
2019-05-19T00:53:17.891Z,50.45
2019-05-19T00:55:45.172Z,50.31
2019-05-19T00:58:13.235Z,50.36
2019-05-19T01:00:40.448Z,50.48
2019-05-19T01:03:07.604Z,50.60
2019-05-19T01:05:34.720Z,50.59
2019-05-19T01:08:01.896Z,50.67
2019-05-19T01:10:30.107Z,50.68
2019-05-19T01:12:57.257Z,50.68
2019-05-19T01:15:24.320Z,50.67
2019-05-19T01:17:53.316Z,50.71
2019-05-19T01:20:23.278Z,50.70
2019-05-19T01:22:50.474Z,50.70
2019-05-19T01:25:17.827Z,50.82
2019-05-19T01:27:46.014Z,50.70
2019-05-19T01:30:13.698Z,50.86
2019-05-19T01:32:40.856Z,50.87
2019-05-19T01:35:08.200Z,50.94
2019-05-19T01:37:35.299Z,50.94
2019-05-19T01:40:02.750Z,51.04
2019-05-19T01:42:30.278Z,51.08
2019-05-19T01:44:57.358Z,51.16
2019-05-19T01:47:24.431Z,51.13
2019-05-19T01:49:51.499Z,51.26
2019-05-19T01:52:18.806Z,51.40
2019-05-19T01:54:45.879Z,51.51
2019-05-19T01:57:12.952Z,51.51
2019-05-19T01:59:40.052Z,51.49
2019-05-19T02:02:07.131Z,51.55
2019-05-19T02:04:34.250Z,51.64
2019-05-19T02:07:01.328Z,51.74
2019-05-19T02:09:28.399Z,51.90
2019-05-19T02:11:55.482Z,51.90
2019-05-19T02:14:22.548Z,51.98
2019-05-19T02:16:49.632Z,52.09
2019-05-19T02:19:16.699Z,52.08
2019-05-19T02:21:43.822Z,52.33
2019-05-19T02:24:10.917Z,52.57
2019-05-19T02:26:37.992Z,52.78
2019-05-19T02:29:05.070Z,52.88
2019-05-19T02:31:32.150Z,52.94
2019-05-19T02:33:59.326Z,53.18
2019-05-19T02:36:26.410Z,53.32
2019-05-19T02:38:53.488Z,53.46
2019-05-19T02:41:23.764Z,53.47
2019-05-19T02:43:52.776Z,53.67
2019-05-19T02:46:20.163Z,53.66
2019-05-19T02:48:48.976Z,53.72
2019-05-19T02:51:17.663Z,53.89
2019-05-19T02:53:45.238Z,54.04
2019-05-19T02:56:12.822Z,53.99
2019-05-19T02:58:40.932Z,53.89
2019-05-19T03:01:08.042Z,54.06
2019-05-19T03:03:35.089Z,54.22
2019-05-19T03:06:02.157Z,54.33
2019-05-19T03:08:29.238Z,54.38
2019-05-19T03:10:56.339Z,54.37
2019-05-19T03:13:23.430Z,54.58
2019-05-19T03:15:50.522Z,54.69
2019-05-19T03:18:17.617Z,54.93
2019-05-19T03:20:44.691Z,55.13
2019-05-19T03:23:11.752Z,55.33
2019-05-19T03:25:38.851Z,55.46
2019-05-19T03:28:05.968Z,55.79
2019-05-19T03:30:51.364Z,55.81
2019-05-19T03:33:21.184Z,56.03
2019-05-19T03:35:48.325Z,55.99
2019-05-19T03:38:15.425Z,56.01
2019-05-19T03:40:42.493Z,56.16
2019-05-19T03:43:09.578Z,56.14
2019-05-19T03:45:36.654Z,56.38
2019-05-19T03:48:03.777Z,56.32
2019-05-19T03:50:30.848Z,56.66
2019-05-19T03:52:57.909Z,56.44
2019-05-19T03:55:24.970Z,56.51
2019-05-19T03:57:52.057Z,56.61
2019-05-19T04:00:19.223Z,56.59
2019-05-19T04:02:46.303Z,56.58
2019-05-19T04:05:13.389Z,56.71
2019-05-19T04:07:40.453Z,57.05
2019-05-19T04:10:07.930Z,57.05
2019-05-19T04:12:35.011Z,57.79
2019-05-19T04:15:02.087Z,57.84
2019-05-19T04:17:29.175Z,58.13
2019-05-19T04:19:56.238Z,57.66
2019-05-19T04:22:23.315Z,58.15
2019-05-19T04:24:50.553Z,57.98
2019-05-19T04:27:17.655Z,58.01
2019-05-19T04:29:44.738Z,57.95
2019-05-19T04:32:11.797Z,58.11
2019-05-19T04:34:38.872Z,58.11
2019-05-19T04:37:05.985Z,58.32
2019-05-19T04:39:33.052Z,58.48
2019-05-19T04:42:00.121Z,58.62
2019-05-19T04:44:27.205Z,58.24
2019-05-19T04:46:54.268Z,58.20
2019-05-19T04:49:21.350Z,58.23
2019-05-19T04:52:05.192Z,58.40
2019-05-19T04:54:17.420Z,58.32
2019-05-19T04:56:44.508Z,58.44
2019-05-19T04:59:11.570Z,58.61
2019-05-19T05:01:38.634Z,58.65
2019-05-19T05:04:05.723Z,58.81
2019-05-19T05:06:32.799Z,58.94
2019-05-19T05:08:59.871Z,58.79
2019-05-19T05:11:26.937Z,58.72
2019-05-19T05:13:54.012Z,58.68
2019-05-19T05:16:21.095Z,58.66
2019-05-19T05:18:48.166Z,58.77
2019-05-19T05:21:15.256Z,58.82
2019-05-19T05:23:42.375Z,58.74
2019-05-19T05:26:09.442Z,58.70
2019-05-19T05:28:36.502Z,58.63
2019-05-19T05:31:03.583Z,58.49
2019-05-19T05:33:30.693Z,58.53
2019-05-19T05:35:57.774Z,58.64
2019-05-19T05:38:24.868Z,58.81
2019-05-19T05:40:51.943Z,58.86
2019-05-19T05:43:19.056Z,59.11
2019-05-19T05:45:46.232Z,59.35
2019-05-19T05:48:15.117Z,59.51
2019-05-19T05:50:42.242Z,59.67
2019-05-19T05:53:09.306Z,59.95
2019-05-19T05:55:36.429Z,60.16
2019-05-19T05:58:03.537Z,60.21
2019-05-19T06:00:30.595Z,60.46
2019-05-19T06:02:57.676Z,60.10
2019-05-19T06:05:24.773Z,60.34
2019-05-19T06:07:51.871Z,60.36
2019-05-19T06:10:18.941Z,60.65
2019-05-19T06:12:46.012Z,60.63
2019-05-19T06:15:13.902Z,60.92
2019-05-19T06:17:40.980Z,61.15
2019-05-19T06:20:08.648Z,61.16
2019-05-19T06:22:36.183Z,61.08
2019-05-19T06:25:03.528Z,61.16
2019-05-19T06:27:30.580Z,61.28
2019-05-19T06:29:57.645Z,61.54
2019-05-19T06:32:31.782Z,61.31
2019-05-19T06:34:58.851Z,61.46
2019-05-19T06:37:25.940Z,61.57
2019-05-19T06:39:53.014Z,61.36
2019-05-19T06:42:20.103Z,61.27
2019-05-19T06:44:47.194Z,61.52
2019-05-19T06:47:14.302Z,61.25
2019-05-19T06:49:41.372Z,61.15
2019-05-19T06:52:08.481Z,61.39
2019-05-19T06:54:35.564Z,61.35
2019-05-19T06:57:02.739Z,61.42
2019-05-19T06:59:29.790Z,61.31
2019-05-19T07:01:56.901Z,61.35
2019-05-19T07:04:23.935Z,61.30
2019-05-19T07:06:51.118Z,61.27
2019-05-19T07:09:18.453Z,61.38
2019-05-19T07:11:45.563Z,61.43
2019-05-19T07:14:12.634Z,61.51
2019-05-19T07:16:39.704Z,61.65
2019-05-19T07:19:06.795Z,61.72
2019-05-19T07:21:33.888Z,61.62
2019-05-19T07:24:00.971Z,61.61
2019-05-19T07:26:28.078Z,61.41
2019-05-19T07:28:55.170Z,61.21
2019-05-19T07:31:22.263Z,60.83
2019-05-19T07:33:49.351Z,60.68
2019-05-19T07:36:16.423Z,60.39
2019-05-19T07:38:43.546Z,60.54
2019-05-19T07:41:10.610Z,60.50
2019-05-19T07:43:37.684Z,61.08
2019-05-19T07:46:04.931Z,61.15
2019-05-19T07:48:31.992Z,60.67
2019-05-19T07:50:59.075Z,60.74
2019-05-19T07:53:26.255Z,60.48
2019-05-19T07:55:53.388Z,60.43
2019-05-19T07:58:20.495Z,60.52
2019-05-19T08:00:47.659Z,60.32
2019-05-19T08:03:14.729Z,60.29
2019-05-19T08:05:41.832Z,60.39
2019-05-19T08:08:08.995Z,60.22
2019-05-19T08:10:36.167Z,60.10
2019-05-19T08:13:03.366Z,59.97
2019-05-19T08:15:30.506Z,59.61
2019-05-19T08:17:57.578Z,59.50
2019-05-19T08:20:25.800Z,59.27
2019-05-19T08:22:53.186Z,59.20
2019-05-19T08:25:20.259Z,59.38
2019-05-19T08:27:47.353Z,59.26
2019-05-19T08:30:14.792Z,59.38
2019-05-19T08:32:41.873Z,59.37
2019-05-19T08:35:09.168Z,59.43
2019-05-19T08:37:36.265Z,58.95
2019-05-19T08:40:03.597Z,58.94
2019-05-19T08:42:30.675Z,58.80
2019-05-19T08:44:57.786Z,58.96
2019-05-19T08:47:24.909Z,58.89
2019-05-19T08:49:51.965Z,58.87
2019-05-19T08:52:19.039Z,58.72
2019-05-19T08:54:46.117Z,58.44
2019-05-19T08:57:13.194Z,58.74
2019-05-19T08:59:40.280Z,58.46
2019-05-19T09:02:07.384Z,58.71
2019-05-19T09:04:34.518Z,58.87
2019-05-19T09:07:01.623Z,59.12
2019-05-19T09:09:28.679Z,58.92
2019-05-19T09:11:55.779Z,59.01
2019-05-19T09:14:22.839Z,59.61
2019-05-19T09:16:49.935Z,59.87
2019-05-19T09:19:17.016Z,60.08
2019-05-19T09:21:44.083Z,60.42
2019-05-19T09:24:11.165Z,60.58
2019-05-19T09:26:38.245Z,60.87
2019-05-19T09:29:05.390Z,61.64
2019-05-19T09:31:32.427Z,62.54
2019-05-19T09:33:59.478Z,62.68
2019-05-19T09:36:26.563Z,62.23
2019-05-19T09:38:53.790Z,62.41
2019-05-19T09:41:21.231Z,62.26
2019-05-19T09:43:48.438Z,62.38
2019-05-19T09:46:15.510Z,61.82
2019-05-19T09:48:42.655Z,61.97
2019-05-19T09:51:09.747Z,62.47
2019-05-19T09:53:36.832Z,62.53
2019-05-19T09:56:03.905Z,62.86
2019-05-19T09:58:30.999Z,62.59
2019-05-19T10:00:58.080Z,62.48
2019-05-19T10:03:25.153Z,62.44
2019-05-19T10:05:52.264Z,62.27
2019-05-19T10:08:34.911Z,62.00
2019-05-19T10:11:55.198Z,61.67
2019-05-19T10:14:22.450Z,61.54
2019-05-19T10:16:52.743Z,61.29
2019-05-19T10:19:21.032Z,61.26
2019-05-19T10:21:48.305Z,61.14
2019-05-19T10:24:15.660Z,61.08
2019-05-19T10:26:42.724Z,61.25
2019-05-19T10:29:09.830Z,61.38
2019-05-19T10:31:36.929Z,61.53
2019-05-19T10:34:04.068Z,61.51
2019-05-19T10:36:31.163Z,61.67
2019-05-19T10:38:58.334Z,61.91
2019-05-19T10:41:27.573Z,62.09
2019-05-19T10:44:01.015Z,62.05
2019-05-19T10:46:28.468Z,62.26
2019-05-19T10:48:55.820Z,62.22
2019-05-19T10:51:23.231Z,62.24
2019-05-19T10:53:50.700Z,62.34
2019-05-19T10:56:19.176Z,62.11
2019-05-19T10:58:46.516Z,62.44
2019-05-19T11:01:13.586Z,62.49
2019-05-19T11:03:40.680Z,62.37
2019-05-19T11:06:07.851Z,62.51
2019-05-19T11:08:35.006Z,62.35
2019-05-19T11:11:02.691Z,62.13
2019-05-19T11:13:29.763Z,62.35
2019-05-19T11:15:56.862Z,62.09
2019-05-19T11:18:23.983Z,62.45
2019-05-19T11:20:51.082Z,62.48
2019-05-19T11:23:18.169Z,62.63
2019-05-19T11:25:51.424Z,62.67
2019-05-19T11:28:14.286Z,62.55
2019-05-19T11:30:41.368Z,62.61
2019-05-19T11:33:08.438Z,62.69
2019-05-19T11:35:35.537Z,62.80
2019-05-19T11:38:02.781Z,62.80
2019-05-19T11:40:29.861Z,63.05
2019-05-19T11:42:58.403Z,63.26
2019-05-19T11:45:25.553Z,62.92
2019-05-19T11:47:52.630Z,63.36
2019-05-19T11:50:20.524Z,63.30
2019-05-19T11:52:47.588Z,63.58
2019-05-19T11:55:14.663Z,63.42
2019-05-19T11:57:41.732Z,64.06
2019-05-19T12:00:09.036Z,64.25
2019-05-19T12:02:36.105Z,63.81
2019-05-19T12:05:03.618Z,63.82
2019-05-19T12:07:30.695Z,63.64
2019-05-19T12:09:57.754Z,64.01
2019-05-19T12:12:24.858Z,64.02
2019-05-19T12:14:51.960Z,64.23
2019-05-19T12:17:19.053Z,64.22
2019-05-19T12:19:46.127Z,64.45
2019-05-19T12:22:13.287Z,64.55
2019-05-19T12:24:41.497Z,64.48
2019-05-19T12:27:08.587Z,64.42
2019-05-19T12:29:35.792Z,64.09
2019-05-19T12:32:02.990Z,64.25
2019-05-19T12:34:30.182Z,63.84
2019-05-19T12:36:57.351Z,64.08
2019-05-19T12:39:24.414Z,63.88
2019-05-19T12:41:51.543Z,63.93
2019-05-19T12:44:18.614Z,63.69
2019-05-19T12:46:45.679Z,62.64
2019-05-19T12:49:12.749Z,63.11
2019-05-19T12:51:39.820Z,63.06
2019-05-19T12:54:06.898Z,62.68
2019-05-19T12:56:39.725Z,62.72
2019-05-19T12:59:03.004Z,62.94
2019-05-19T13:01:30.072Z,62.86
2019-05-19T13:03:57.150Z,63.22
2019-05-19T13:06:24.226Z,63.25
2019-05-19T13:08:51.299Z,63.19
2019-05-19T13:11:18.371Z,62.84
2019-05-19T13:13:45.438Z,62.98
2019-05-19T13:16:12.504Z,63.30
2019-05-19T13:18:39.575Z,63.47
2019-05-19T13:21:06.642Z,63.41
2019-05-19T13:23:33.728Z,63.77
2019-05-19T13:26:00.798Z,63.72
2019-05-19T13:28:27.879Z,63.60
2019-05-19T13:30:54.948Z,63.75
2019-05-19T13:33:23.173Z,64.05
2019-05-19T13:35:50.278Z,64.29
2019-05-19T13:38:17.349Z,64.25
2019-05-19T13:40:45.807Z,64.18
2019-05-19T13:43:19.762Z,63.95
2019-05-19T13:45:46.979Z,64.30
2019-05-19T13:48:15.090Z,64.26
2019-05-19T13:50:42.223Z,64.45
2019-05-19T13:53:10.655Z,64.57
2019-05-19T13:55:37.711Z,64.67
2019-05-19T13:58:04.804Z,64.50
2019-05-19T14:00:31.888Z,64.30
2019-05-19T14:02:58.995Z,64.41
2019-05-19T14:05:26.091Z,64.39
2019-05-19T14:07:53.160Z,64.41
2019-05-19T14:10:20.267Z,64.45
2019-05-19T14:12:47.374Z,64.22
2019-05-19T14:15:14.500Z,64.50
2019-05-19T14:17:41.575Z,63.96
2019-05-19T14:20:08.981Z,64.41
2019-05-19T14:22:36.087Z,64.23
2019-05-19T14:25:03.677Z,63.99
2019-05-19T14:27:31.121Z,63.98
2019-05-19T14:29:58.328Z,64.07
2019-05-19T14:32:25.403Z,63.94
2019-05-19T14:34:52.483Z,64.16
2019-05-19T14:37:19.573Z,64.38
2019-05-19T14:39:48.571Z,64.54
2019-05-19T14:42:35.229Z,64.83
2019-05-19T14:45:03.230Z,64.96
2019-05-19T14:47:30.305Z,65.31
2019-05-19T14:49:59.280Z,65.46
2019-05-19T14:52:26.349Z,65.86
2019-05-19T14:54:55.248Z,65.80
2019-05-19T14:57:22.338Z,65.95
2019-05-19T14:59:49.409Z,66.50
2019-05-19T15:02:19.924Z,66.57
2019-05-19T15:04:46.549Z,66.59
2019-05-19T15:07:13.648Z,67.11
2019-05-19T15:09:40.838Z,67.07
2019-05-19T15:12:07.905Z,67.39
2019-05-19T15:14:35.014Z,67.58
2019-05-19T15:17:02.116Z,67.68
2019-05-19T15:19:29.208Z,67.86
2019-05-19T15:21:56.295Z,67.91
2019-05-19T15:24:23.364Z,68.04
2019-05-19T15:26:50.533Z,68.02
2019-05-19T15:29:17.759Z,67.98
2019-05-19T15:31:44.901Z,67.88
2019-05-19T15:34:12.068Z,67.98
2019-05-19T15:36:39.216Z,68.06
2019-05-19T15:39:06.447Z,67.84
2019-05-19T15:41:33.549Z,67.91
2019-05-19T15:44:00.760Z,68.03
2019-05-19T15:46:27.835Z,67.96
2019-05-19T15:48:54.941Z,67.83
2019-05-19T15:51:28.656Z,67.83
2019-05-19T15:53:55.759Z,67.72
2019-05-19T15:56:22.963Z,67.80
2019-05-19T15:58:50.075Z,67.74
2019-05-19T16:01:17.216Z,67.54
2019-05-19T16:03:44.578Z,67.22
2019-05-19T16:06:14.673Z,67.26
2019-05-19T16:08:46.197Z,67.18
2019-05-19T16:11:13.422Z,67.07
2019-05-19T16:13:43.236Z,67.22
2019-05-19T16:16:12.187Z,67.30
2019-05-19T16:18:41.132Z,67.45
2019-05-19T16:21:08.621Z,67.60
2019-05-19T16:23:35.899Z,67.46
2019-05-19T16:26:05.856Z,67.65
2019-05-19T16:28:33.235Z,67.76
2019-05-19T16:31:06.002Z,67.57
2019-05-19T16:33:36.222Z,67.77
2019-05-19T16:36:07.569Z,67.90
2019-05-19T16:38:34.174Z,68.02
2019-05-19T16:41:05.581Z,68.08
2019-05-19T16:43:35.218Z,68.03
2019-05-19T16:46:04.712Z,68.06
2019-05-19T16:48:35.718Z,67.96
2019-05-19T16:51:02.939Z,67.96
2019-05-19T16:53:31.776Z,67.86
2019-05-19T16:55:59.054Z,67.86
2019-05-19T16:58:26.290Z,67.88
2019-05-19T17:00:57.408Z,67.93
2019-05-19T17:03:25.727Z,67.91
2019-05-19T17:05:53.042Z,68.01
2019-05-19T17:08:20.194Z,67.93
2019-05-19T17:10:49.981Z,67.66
2019-05-19T17:13:19.480Z,67.87
2019-05-19T17:15:54.244Z,67.94
2019-05-19T17:18:24.064Z,68.03
2019-05-19T17:20:52.133Z,67.94
2019-05-19T17:23:24.909Z,68.07
2019-05-19T17:25:52.036Z,68.21
2019-05-19T17:28:21.391Z,68.32
2019-05-19T17:30:53.823Z,68.41
2019-05-19T17:33:20.931Z,68.16
2019-05-19T17:35:48.046Z,68.47
2019-05-19T17:38:15.185Z,68.61
2019-05-19T17:40:47.123Z,68.67
2019-05-19T17:43:14.223Z,68.77
2019-05-19T17:45:41.318Z,68.92
2019-05-19T17:48:10.287Z,68.87
2019-05-19T17:50:37.443Z,68.93
2019-05-19T17:53:04.553Z,69.06
2019-05-19T17:55:32.862Z,69.26
2019-05-19T17:58:01.036Z,69.39
2019-05-19T18:00:34.314Z,69.48
2019-05-19T18:03:01.384Z,69.65
2019-05-19T18:05:28.490Z,69.69
2019-05-19T18:07:55.533Z,69.32
2019-05-19T18:10:29.403Z,69.58
2019-05-19T18:12:58.295Z,69.80
2019-05-19T18:15:25.424Z,69.86
2019-05-19T18:17:55.609Z,70.02
2019-05-19T18:20:24.012Z,70.12
2019-05-19T18:22:51.482Z,70.30
2019-05-19T18:25:21.577Z,70.49
2019-05-19T18:27:48.748Z,70.51
2019-05-19T18:30:23.373Z,70.67
2019-05-19T18:32:50.452Z,70.83
2019-05-19T18:35:17.509Z,70.61
2019-05-19T18:37:44.580Z,70.79
2019-05-19T18:40:11.697Z,70.83
2019-05-19T18:42:43.842Z,71.04
2019-05-19T18:45:11.120Z,71.15
2019-05-19T18:47:45.494Z,71.40
2019-05-19T18:50:12.822Z,71.50
2019-05-19T18:52:39.868Z,71.54
2019-05-19T18:55:07.133Z,71.68
2019-05-19T18:57:34.265Z,71.76
2019-05-19T19:00:04.495Z,71.83
2019-05-19T19:02:38.634Z,71.92
2019-05-19T19:05:08.283Z,71.95
2019-05-19T19:07:54.171Z,72.01
2019-05-19T19:10:31.439Z,72.10
2019-05-19T19:13:05.526Z,72.06
2019-05-19T19:15:38.668Z,72.03
2019-05-19T19:18:08.657Z,71.90
2019-05-19T19:21:02.801Z,71.84
2019-05-19T19:23:29.872Z,71.89
2019-05-19T19:26:08.815Z,71.60
2019-05-19T19:28:37.028Z,71.63
2019-05-19T19:31:16.559Z,71.71
2019-05-19T19:33:48.311Z,71.72
2019-05-19T19:36:15.383Z,71.73
2019-05-19T19:38:42.463Z,71.59
2019-05-19T19:41:09.531Z,71.72
2019-05-19T19:43:38.563Z,71.61
2019-05-19T19:46:06.671Z,71.50
2019-05-19T19:48:33.744Z,71.54
2019-05-19T19:51:00.837Z,71.65
2019-05-19T19:53:27.923Z,71.62
2019-05-19T19:55:55.017Z,71.74
2019-05-19T19:58:22.204Z,71.76
2019-05-19T20:00:49.274Z,71.61
2019-05-19T20:03:16.368Z,71.82
2019-05-19T20:05:43.482Z,71.80
2019-05-19T20:08:12.864Z,71.58
2019-05-19T20:10:40.441Z,71.64
2019-05-19T20:13:07.585Z,71.49
2019-05-19T20:15:35.533Z,71.71
2019-05-19T20:18:02.613Z,71.73
2019-05-19T20:20:29.671Z,71.83
2019-05-19T20:22:56.828Z,71.90
2019-05-19T20:25:23.957Z,72.04
2019-05-19T20:27:51.053Z,72.03
2019-05-19T20:30:33.660Z,71.83
2019-05-19T20:32:47.205Z,71.94
2019-05-19T20:35:15.752Z,72.08
2019-05-19T20:37:45.721Z,72.16
2019-05-19T20:40:13.237Z,72.28
2019-05-19T20:42:40.313Z,72.44
2019-05-19T20:45:07.682Z,72.39
2019-05-19T20:47:34.745Z,72.42
2019-05-19T20:50:02.087Z,72.57
2019-05-19T20:52:29.351Z,72.57
2019-05-19T20:54:56.403Z,72.59
2019-05-19T20:57:23.478Z,72.59
2019-05-19T20:59:51.805Z,72.64
2019-05-19T21:02:18.895Z,72.67
2019-05-19T21:04:45.976Z,72.77
2019-05-19T21:07:14.150Z,72.84
2019-05-19T21:09:41.235Z,72.88
2019-05-19T21:12:08.315Z,73.01
2019-05-19T21:14:35.430Z,73.01
2019-05-19T21:17:02.554Z,72.99
2019-05-19T21:19:29.619Z,73.06
2019-05-19T21:21:56.799Z,72.98
2019-05-19T21:24:24.995Z,72.96
2019-05-19T21:26:52.063Z,72.95
2019-05-19T21:29:19.179Z,72.96
2019-05-19T21:31:46.223Z,73.01
2019-05-19T21:34:13.327Z,73.05
2019-05-19T21:36:40.380Z,73.07
2019-05-19T21:39:07.483Z,72.92
2019-05-19T21:41:34.537Z,73.02
2019-05-19T21:44:03.917Z,72.97
2019-05-19T21:46:33.067Z,73.00
2019-05-19T21:49:00.128Z,72.99
2019-05-19T21:51:27.239Z,72.99
2019-05-19T21:53:54.332Z,72.96
2019-05-19T21:56:21.392Z,72.91
2019-05-19T21:58:48.492Z,72.96
2019-05-19T22:01:23.124Z,72.97
2019-05-19T22:03:44.549Z,73.09
2019-05-19T22:06:11.658Z,73.13
2019-05-19T22:08:38.723Z,73.17
2019-05-19T22:11:05.786Z,73.26
2019-05-19T22:13:32.873Z,73.39
2019-05-19T22:16:12.203Z,73.46
2019-05-19T22:18:28.918Z,73.46
2019-05-19T22:20:56.003Z,73.54
2019-05-19T22:23:23.050Z,73.64
2019-05-19T22:25:50.118Z,73.72
2019-05-19T22:28:17.254Z,73.67
2019-05-19T22:30:44.319Z,73.63
2019-05-19T22:33:11.724Z,73.70
2019-05-19T22:35:38.926Z,73.68
2019-05-19T22:38:10.456Z,73.75
2019-05-19T22:40:38.947Z,73.82
2019-05-19T22:43:09.048Z,73.85
2019-05-19T22:45:36.320Z,73.97
2019-05-19T22:48:08.212Z,74.03
2019-05-19T22:50:35.300Z,74.15
2019-05-19T22:53:06.293Z,74.21
2019-05-19T22:55:33.404Z,74.20
2019-05-19T22:58:42.517Z,74.15
2019-05-19T23:00:45.683Z,74.05
2019-05-19T23:03:12.840Z,73.95
2019-05-19T23:05:39.916Z,73.90
2019-05-19T23:08:07.063Z,73.81
2019-05-19T23:10:34.218Z,73.78
2019-05-19T23:13:01.241Z,73.71
2019-05-19T23:15:46.126Z,73.69
2019-05-19T23:18:14.851Z,73.66
2019-05-19T23:20:41.995Z,73.61
2019-05-19T23:23:10.973Z,73.66
2019-05-19T23:25:39.132Z,73.61
2019-05-19T23:28:06.204Z,73.66
2019-05-19T23:30:34.827Z,73.70
2019-05-19T23:33:07.217Z,73.71
2019-05-19T23:35:36.918Z,73.77
2019-05-19T23:38:04.161Z,73.83
2019-05-19T23:40:32.495Z,73.95
2019-05-19T23:42:59.665Z,74.02
2019-05-19T23:45:26.858Z,74.06
2019-05-19T23:47:54.050Z,74.08
2019-05-19T23:50:21.370Z,74.00
2019-05-19T23:52:48.456Z,73.99
2019-05-19T23:55:19.590Z,74.07
2019-05-19T23:57:49.134Z,74.14
